May 28, 2022

Time Code Weather Temp. Visibility Ceiling Wind METAR/SPECI
5:30 am
V
52 °F 6¼ mi+ - 250° 250° 3 kt METAR LFBE 280330Z AUTO 25003KT CAVOK 11/10 Q1020 NOSIG
5:00 am
V
54 °F 6¼ mi+ - Var Var 3 kt METAR LFBE 280300Z AUTO VRB03KT CAVOK 12/10 Q1020 NOSIG
4:30 am
V
54 °F 6¼ mi+ - 280° 280° 4 kt METAR LFBE 280230Z AUTO 28004KT CAVOK 12/10 Q1020 NOSIG
4:00 am
V
54 °F 6¼ mi+ - Var Var 3 kt METAR LFBE 280200Z AUTO VRB03KT CAVOK 12/10 Q1020 NOSIG
3:30 am
V
55 °F 6¼ mi+ - 310° 310° 3 kt METAR LFBE 280130Z AUTO 31003KT 290V350 CAVOK 13/10 Q1021 NOSIG
3:00 am
V
57 °F 6¼ mi+ - 320° 320° 4 kt METAR LFBE 280100Z AUTO 32004KT 290V350 CAVOK 14/10 Q1021 NOSIG
2:30 am
V
55 °F 6¼ mi+ - Var Var 1 kt METAR LFBE 280030Z AUTO VRB01KT CAVOK 13/10 Q1021 NOSIG
2:00 am
V
57 °F 6¼ mi+ - Var Var 3 kt METAR LFBE 280000Z AUTO VRB03KT CAVOK 14/10 Q1022 NOSIG
1:30 am
V
57 °F 6¼ mi+ - Var Var 2 kt METAR LFBE 272330Z AUTO VRB02KT CAVOK 14/11 Q1022
1:00 am
V
59 °F 6¼ mi+ - 340° 340° 4 kt METAR LFBE 272300Z AUTO 34004KT 300V010 CAVOK 15/12 Q1022
12:30 am
V
57 °F 6¼ mi+ - 280° 280° 4 kt METAR LFBE 272230Z AUTO 28004KT CAVOK 14/11 Q1022
12:00 am
V
59 °F 6¼ mi+ - 260° 260° 2 kt METAR LFBE 272200Z AUTO 26002KT CAVOK 15/12 Q1022

May 27, 2022

Time Code Weather Temp. Visibility Ceiling Wind METAR/SPECI
11:30 pm
V
61 °F 6¼ mi+ - 310° 310° 5 kt METAR LFBE 272130Z AUTO 31005KT CAVOK 16/12 Q1022
11:00 pm
V
63 °F 6¼ mi+ - 320° 320° 5 kt METAR LFBE 272100Z AUTO 32005KT CAVOK 17/12 Q1023
10:30 pm
V
63 °F 6¼ mi+ - 320° 320° 4 kt METAR LFBE 272030Z AUTO 32004KT CAVOK 17/11 Q1022
10:00 pm
V
66 °F 6¼ mi+ - 330° 330° 3 kt METAR LFBE 272000Z AUTO 33003KT CAVOK 19/12 Q1022 NOSIG
9:30 pm
V
68 °F 6¼ mi+ - 340° 340° 6 kt METAR LFBE 271930Z AUTO 34006KT CAVOK 20/12 Q1022 NOSIG
9:00 pm
V
72 °F 6¼ mi+ - 350° 350° 6 kt METAR LFBE 271900Z AUTO 35006KT CAVOK 22/12 Q1022 NOSIG
8:30 pm
V
73 °F 6¼ mi+ - 340° 340° 9 kt METAR LFBE 271830Z AUTO 34009KT CAVOK 23/12 Q1022 NOSIG
8:00 pm
V
75 °F 5⅝ mi - 340° 340° 10 kt METAR LFBE 271800Z AUTO 34010KT 310V020 9000 NSC 24/12 Q1022 NOSIG
7:30 pm
V
75 °F 5 mi - 340° 340° 9 kt METAR LFBE 271730Z AUTO 34009KT 310V020 8000 NSC 24/12 Q1022 NOSIG
7:00 pm
V
77 °F 5 mi - 340° 340° 7 kt METAR LFBE 271700Z AUTO 34007KT 300V020 8000 NSC 25/13 Q1022 NOSIG
6:30 pm
V
77 °F 5 mi - 350° 350° 9 kt METAR LFBE 271630Z AUTO 35009KT 310V040 8000 NSC 25/12 Q1022 NOSIG
6:00 pm
V
77 °F 5 mi - 330° 330° 8 - 20 kt METAR LFBE 271600Z AUTO 33008G20KT 300V020 8000 NSC 25/12 Q1022 NOSIG
5:30 pm
V
77 °F 5 mi - 330° 330° 10 kt METAR LFBE 271530Z AUTO 33010KT 290V020 8000 NSC 25/12 Q1023 NOSIG
5:00 pm
V
77 °F 5 mi - 330° 330° 9 kt METAR LFBE 271500Z AUTO 33009KT 270V010 8000 NSC 25/12 Q1023 NOSIG
4:30 pm
V
77 °F 5⅝ mi - 330° 330° 9 kt METAR LFBE 271430Z AUTO 33009KT 280V010 9000 NSC 25/12 Q1023 NOSIG
4:00 pm
V
77 °F 6¼ mi+ - 330° 330° 10 kt METAR LFBE 271400Z AUTO 33010KT 260V010 CAVOK 25/12 Q1024 NOSIG
3:30 pm
V
75 °F 6¼ mi+ - 310° 310° 10 kt METAR LFBE 271330Z AUTO 31010KT 280V350 CAVOK 24/12 Q1024 NOSIG
3:00 pm
V
75 °F 6¼ mi+ - 320° 320° 9 kt METAR LFBE 271300Z AUTO 32009KT 270V020 9999 FEW043 24/13 Q1024 NOSIG
2:30 pm
V
75 °F 6¼ mi+ - 330° 330° 5 kt METAR LFBE 271230Z AUTO 33005KT 290V090 9999 SCT042 24/12 Q1024 NOSIG
2:00 pm
V
75 °F 6¼ mi+ 4,100 ft 330° 330° 8 kt METAR LFBE 271200Z AUTO 33008KT 290V360 9999 BKN041 24/13 Q1025 NOSIG
1:30 pm
V
75 °F 6¼ mi+ 4,000 ft 340° 340° 7 kt METAR LFBE 271130Z AUTO 34007KT 290V040 9999 BKN040 24/13 Q1025 NOSIG
1:00 pm
V
73 °F 6¼ mi+ 3,900 ft 330° 330° 9 kt METAR LFBE 271100Z AUTO 33009KT 290V030 9999 BKN039 23/12 Q1025 NOSIG
12:30 pm
V
73 °F 6¼ mi+ - 340° 340° 10 kt METAR LFBE 271030Z AUTO 34010KT 290V020 9999 SCT037 23/13 Q1025 NOSIG
12:00 pm
V
70 °F 6¼ mi+ 3,600 ft 320° 320° 9 kt METAR LFBE 271000Z AUTO 32009KT 9999 BKN036 21/12 Q1025 NOSIG
11:30 am
V
70 °F 6¼ mi+ 3,500 ft 340° 340° 7 kt METAR LFBE 270930Z AUTO 34007KT 300V020 9999 BKN035 21/12 Q1026 NOSIG
11:00 am
V
72 °F 6¼ mi+ 3,500 ft 360° 360° 7 kt METAR LFBE 270900Z AUTO 36007KT 330V030 9999 BKN035 22/12 Q1026 NOSIG
10:30 am
V
70 °F 6¼ mi+ - 340° 340° 6 kt METAR LFBE 270830Z AUTO 34006KT 300V010 9999 FEW030 21/12 Q1026 NOSIG
10:00 am
V
68 °F 6¼ mi+ - 340° 340° 5 kt METAR LFBE 270800Z AUTO 34005KT 260V030 CAVOK 20/13 Q1026 NOSIG
9:30 am
V
64 °F 6¼ mi+ 4,200 ft 330° 330° 3 kt METAR LFBE 270730Z AUTO 33003KT 260V070 9999 BKN042 18/13 Q1026 NOSIG
9:00 am
V
61 °F 6¼ mi+ 4,200 ft 290° 290° 4 kt METAR LFBE 270700Z AUTO 29004KT 9999 OVC042 16/12 Q1026 NOSIG
8:30 am
V
61 °F 6¼ mi+ 4,300 ft 300° 300° 4 kt METAR LFBE 270630Z AUTO 30004KT 260V320 9999 OVC043 16/12 Q1026 NOSIG
8:00 am
V
61 °F 6¼ mi+ 4,300 ft 300° 300° 4 kt METAR LFBE 270600Z AUTO 30004KT 270V350 9999 BKN043 16/12 Q1026 NOSIG
7:30 am
V
59 °F 6¼ mi+ 4,400 ft 300° 300° 5 kt METAR LFBE 270530Z AUTO 30005KT 270V330 9999 OVC044 15/12 Q1026 NOSIG
7:00 am
V
57 °F 6¼ mi+ 4,400 ft 290° 290° 4 kt METAR LFBE 270500Z AUTO 29004KT 9999 OVC044 14/13 Q1026 TEMPO 3000 BR
6:30 am
V
55 °F 6¼ mi+ 4,500 ft 270° 270° 3 kt METAR LFBE 270430Z AUTO 27003KT 9999 OVC045 13/11 Q1026 TEMPO 3000 BR
6:00 am
V
55 °F 6¼ mi+ 4,500 ft 270° 270° 5 kt METAR LFBE 270400Z AUTO 27005KT 9999 OVC045 13/11 Q1026 TEMPO 3000 BR
5:30 am
V
57 °F 6¼ mi+ 4,500 ft 270° 270° 5 kt METAR LFBE 270330Z AUTO 27005KT 9999 OVC045 14/12 Q1026 TEMPO 3000 BR
5:00 am
V
57 °F 6¼ mi+ 4,500 ft 270° 270° 6 kt METAR LFBE 270300Z AUTO 27006KT 9999 OVC045 14/12 Q1026 TEMPO 3000 BR
4:30 am
V
55 °F 6¼ mi+ 4,600 ft 250° 250° 5 kt METAR LFBE 270230Z AUTO 25005KT 9999 OVC046 13/12 Q1026 TEMPO 3000 BR
4:00 am
V
55 °F 6¼ mi+ 4,600 ft 240° 240° 4 kt METAR LFBE 270200Z AUTO 24004KT 9999 OVC046 13/12 Q1026 TEMPO 3000 BR
3:30 am
V
54 °F 6¼ mi+ 4,700 ft 260° 260° 4 kt METAR LFBE 270130Z AUTO 26004KT 9999 BKN047 12/11 Q1027 TEMPO 3000 BR
3:00 am
V
54 °F 6¼ mi+ 4,600 ft 260° 260° 4 kt METAR LFBE 270100Z AUTO 26004KT 9999 BKN046 12/10 Q1027 TEMPO 3000 BR
2:30 am
V
55 °F 6¼ mi+ 4,700 ft 250° 250° 3 kt METAR LFBE 270030Z AUTO 25003KT 9999 OVC047 13/11 Q1027 TEMPO 3000 BR
2:00 am
V
54 °F 6¼ mi+ 4,600 ft 250° 250° 3 kt METAR LFBE 270000Z AUTO 25003KT 9999 BKN046 12/10 Q1027 NOSIG
1:30 am
V
54 °F 6¼ mi+ 4,600 ft 240° 240° 4 kt METAR LFBE 262330Z AUTO 24004KT 9999 OVC046 12/11 Q1027 NOSIG
1:00 am
V
54 °F 6¼ mi+ 4,500 ft 260° 260° 3 kt METAR LFBE 262300Z AUTO 26003KT 9999 OVC045 12/11 Q1027
12:30 am
V
54 °F 6¼ mi+ 4,500 ft 220° 220° 3 kt METAR LFBE 262230Z AUTO 22003KT 9999 BKN045 12/11 Q1027
12:00 am
V
55 °F 6¼ mi+ 4,400 ft Var Var 2 kt METAR LFBE 262200Z AUTO VRB02KT 9999 BKN044 13/11 Q1027

May 26, 2022

Time Code Weather Temp. Visibility Ceiling Wind METAR/SPECI
11:30 pm
V
57 °F 6¼ mi+ - 310° 310° 4 kt METAR LFBE 262130Z AUTO 31004KT 9999 FEW044 14/11 Q1027
11:00 pm
V
59 °F 6¼ mi+ - 310° 310° 4 kt METAR LFBE 262100Z AUTO 31004KT 9999 FEW038 15/11 Q1027
10:30 pm
V
63 °F 6¼ mi+ 3,900 ft 300° 300° 4 kt METAR LFBE 262030Z AUTO 30004KT 9999 OVC039 17/12 Q1027
10:00 pm
V
63 °F 6¼ mi+ 3,900 ft 310° 310° 4 kt METAR LFBE 262000Z AUTO 31004KT 9999 OVC039 17/12 Q1027 NOSIG
9:30 pm
V
64 °F 6¼ mi+ 4,000 ft 310° 310° 5 kt METAR LFBE 261930Z AUTO 31005KT 9999 OVC040 18/12 Q1026 NOSIG
9:00 pm
V
64 °F 6¼ mi+ 4,100 ft 320° 320° 5 kt METAR LFBE 261900Z AUTO 32005KT 9999 OVC041 18/12 Q1026 NOSIG
8:30 pm
V
64 °F 6¼ mi+ 4,200 ft 310° 310° 7 kt METAR LFBE 261830Z AUTO 31007KT 9999 OVC042 18/12 Q1026 NOSIG
8:00 pm
V
66 °F 6¼ mi+ 4,200 ft 330° 330° 4 kt METAR LFBE 261800Z AUTO 33004KT 300V010 9999 OVC042 19/12 Q1026 NOSIG
7:30 pm
V
66 °F 6¼ mi+ 3,800 ft 340° 340° 6 kt METAR LFBE 261730Z AUTO 34006KT 9999 OVC038 19/12 Q1026 NOSIG
7:00 pm
V
66 °F 6¼ mi+ 3,800 ft 340° 340° 7 kt METAR LFBE 261700Z AUTO 34007KT 9999 FEW032 OVC038 19/12 Q1026 NOSIG
6:30 pm
V
66 °F 6¼ mi+ 3,400 ft 360° 360° 5 kt METAR LFBE 261630Z AUTO 36005KT 330V030 9999 SCT028 BKN034 OVC041 19/12 Q1027 NOSIG
6:00 pm
M
66 °F 6¼ mi+ 2,900 ft 360° 360° 5 kt METAR LFBE 261600Z AUTO 36005KT 330V030 9999 BKN029 OVC043 19/12 Q1027 NOSIG
5:30 pm
V
66 °F 6¼ mi+ 4,300 ft 360° 360° 6 kt METAR LFBE 261530Z AUTO 36006KT 330V060 9999 SCT034 OVC043 19/13 Q1027 NOSIG
5:00 pm
M
66 °F 6¼ mi+ 2,800 ft 340° 340° 7 kt METAR LFBE 261500Z AUTO 34007KT 320V020 9999 BKN028 OVC035 19/12 Q1027 NOSIG
4:30 pm
V
66 °F 6¼ mi+ 4,100 ft 360° 360° 6 kt METAR LFBE 261430Z AUTO 36006KT 320V030 9999 FEW035 OVC041 19/12 Q1027 NOSIG
4:00 pm
V
68 °F 6¼ mi+ 4,200 ft 340° 340° 8 kt METAR LFBE 261400Z AUTO 34008KT 9999 FEW031 OVC042 20/11 Q1027 NOSIG
3:30 pm
V
68 °F 6¼ mi+ 4,200 ft 330° 330° 9 kt METAR LFBE 261330Z AUTO 33009KT 300V010 9999 OVC042 20/12 Q1027 NOSIG
3:00 pm
V
68 °F 6¼ mi+ 4,100 ft 340° 340° 6 kt METAR LFBE 261300Z AUTO 34006KT 300V010 9999 OVC041 20/12 Q1027 NOSIG
2:30 pm
V
68 °F 6¼ mi+ 4,500 ft 350° 350° 8 kt METAR LFBE 261230Z AUTO 35008KT 300V040 9999 SCT034 OVC045 20/12 Q1027 NOSIG
2:00 pm
V
68 °F 6¼ mi+ 3,300 ft 330° 330° 6 kt METAR LFBE 261200Z AUTO 33006KT 280V030 9999 BKN033 OVC046 20/11 Q1028 NOSIG
1:30 pm
V
66 °F 6¼ mi+ 3,500 ft 330° 330° 5 kt METAR LFBE 261130Z AUTO 33005KT 290V020 9999 FEW023 BKN035 OVC045 19/12 Q1028 NOSIG
1:00 pm
V
64 °F 6¼ mi+ 4,000 ft 300° 300° 5 kt METAR LFBE 261100Z AUTO 30005KT 280V350 9999 FEW021 SCT034 OVC040 18/12 Q1028 NOSIG
12:30 pm
V
64 °F 5⅝ mi 4,400 ft 280° 280° 5 kt METAR LFBE 261030Z AUTO 28005KT 220V340 9000 FEW036 OVC044 18/13 Q1028 NOSIG
12:00 pm
V
61 °F 6¼ mi+ 3,100 ft 240° 240° 5 kt METAR LFBE 261000Z AUTO 24005KT 9999 FEW020 OVC031 16/13 Q1028 NOSIG
11:30 am
M
61 °F 6¼ mi+ 1,800 ft 270° 270° 5 kt METAR LFBE 260930Z AUTO 27005KT 230V290 9999 BKN018 OVC030 16/12 Q1028 NOSIG
11:00 am
V
63 °F 6¼ mi+ 3,900 ft 230° 230° 3 kt METAR LFBE 260900Z AUTO 23003KT 190V290 9999 FEW015 SCT026 BKN039 17/12 Q1028 NOSIG
10:30 am
V
61 °F 6¼ mi+ 3,300 ft 250° 250° 3 kt METAR LFBE 260830Z AUTO 25003KT 200V290 9999 FEW012 OVC033 16/12 Q1028 NOSIG
10:00 am
M
59 °F 6¼ mi+ 2,900 ft 290° 290° 3 kt METAR LFBE 260800Z AUTO 29003KT 230V320 9999 FEW012 BKN029 OVC036 15/12 Q1028 NOSIG
9:30 am
M
59 °F 6¼ mi+ 2,300 ft Var Var 3 kt METAR LFBE 260730Z AUTO VRB03KT 9999 SCT013 BKN023 BKN028 15/12 Q1028 NOSIG
9:00 am
M
57 °F 6¼ mi+ 1,500 ft 280° 280° 4 kt METAR LFBE 260700Z AUTO 28004KT 250V310 9999 BKN015 BKN021 BKN027 14/12 Q1027 TEMPO 3000 -RADZ BKN008
8:30 am
M
55 °F 6¼ mi+ 1,800 ft Var Var 2 kt METAR LFBE 260630Z AUTO VRB02KT 9999 BKN018 OVC025 13/12 Q1027 TEMPO 3000 -RADZ BKN008
8:00 am
M
54 °F 6¼ mi+ 2,100 ft Var 000° 0 kt METAR LFBE 260600Z AUTO 00000KT 9999 BKN021 OVC046 12/12 Q1027 TEMPO 3000 -RADZ BKN008
7:30 am
V
52 °F 6¼ mi+ 4,400 ft 080° 080° 1 kt METAR LFBE 260530Z AUTO 08001KT 9999 FEW014 OVC044 11/11 Q1027 TEMPO 3000 -RADZ BKN008
7:00 am
V
52 °F 6¼ mi+ 4,300 ft 120° 120° 1 kt METAR LFBE 260500Z AUTO 12001KT 9999 OVC043 11/10 Q1027 TEMPO BKN008
6:30 am
V
50 °F 6¼ mi+ 4,300 ft 050° 050° 1 kt METAR LFBE 260430Z AUTO 05001KT 9999 OVC043 10/10 Q1026 TEMPO BKN008
6:00 am
V
50 °F 6¼ mi+ 4,300 ft Var 000° 0 kt METAR LFBE 260400Z AUTO 00000KT 9999 OVC043 10/09 Q1026 TEMPO BKN008
5:30 am
V
48 °F 6¼ mi+ 4,200 ft 150° 150° 1 kt METAR LFBE 260330Z AUTO 15001KT 9999 FEW020 OVC042 09/08 Q1026 TEMPO BKN008
5:00 am
V
46 °F 6¼ mi+ 4,200 ft Var 000° 0 kt METAR LFBE 260300Z AUTO 00000KT 9999 BKN042 08/07 Q1026 TEMPO BKN008
4:30 am
M
48 °F 6¼ mi+ 2,100 ft Var Var 2 kt METAR LFBE 260230Z AUTO VRB02KT 9999 BKN021 09/08 Q1026 TEMPO BKN008
4:00 am
M
48 °F 6¼ mi+ 2,100 ft Var 000° 0 kt METAR LFBE 260200Z AUTO 00000KT 9999 BKN021 BKN026 09/08 Q1026 TEMPO BKN008
3:30 am
V
48 °F 6¼ mi+ - 300° 300° 3 kt METAR LFBE 260130Z AUTO 30003KT CAVOK 09/07 Q1026 TEMPO BKN008
3:00 am
V
50 °F 6¼ mi+ - 240° 240° 2 kt METAR LFBE 260100Z AUTO 24002KT CAVOK 10/08 Q1026 NOSIG
2:30 am
V
52 °F 6¼ mi+ - 260° 260° 4 kt METAR LFBE 260030Z AUTO 26004KT CAVOK 11/09 Q1027 NOSIG
2:00 am
V
52 °F 6¼ mi+ - 260° 260° 3 kt METAR LFBE 260000Z AUTO 26003KT CAVOK 11/08 Q1027 NOSIG
1:30 am
V
52 °F 6¼ mi+ - 250° 250° 3 kt METAR LFBE 252330Z AUTO 25003KT CAVOK 11/09 Q1027 NOSIG
1:00 am
V
52 °F 6¼ mi+ - 250° 250° 5 kt METAR LFBE 252300Z AUTO 25005KT CAVOK 11/09 Q1027
12:30 am
V
52 °F 6¼ mi+ - 260° 260° 5 kt METAR LFBE 252230Z AUTO 26005KT CAVOK 11/08 Q1026
12:00 am
V
54 °F 6¼ mi+ - 260° 260° 4 kt METAR LFBE 252200Z AUTO 26004KT CAVOK 12/08 Q1026

May 25, 2022

Time Code Weather Temp. Visibility Ceiling Wind METAR/SPECI
11:30 pm
V
55 °F 6¼ mi+ - 260° 260° 6 kt METAR LFBE 252130Z AUTO 26006KT CAVOK 13/09 Q1026
Older data

Download our app

Easy access to all aviation weather on your mobile phone and tablet.
With many features not available on the website, like offline support and a personal airport list.

We and third parties follow your internet behavior on our website with cookies. If you continue, we assume you agree with our cookie policy. Learn more